Time;durP1;ratioP1;P1;durP2;ratioP2;P2;SDS_P1;SDS_P2;PMS_P1;PMS_P2;Temp;Humidity;BMP_temperature;BMP_pressure;BME280_temperature;BME280_humidity;BME280_pressure;Samples;Min_cycle;Max_cycle;Signal;HPM_P1;HPM_P2
2021/05/08 04:00:29;;;;;;;6.53;5.60;;;4.00;99.90;;;;;;5917933;23;20215;-70
2021/05/08 04:02:55;;;;;;;11.07;6.45;;;4.00;99.90;;;;;;4935287;29;20236;-71
2021/05/08 04:05:22;;;;;;;12.63;6.22;;;4.10;99.90;;;;;;4937975;29;20210;-70
2021/05/08 04:07:48;;;;;;;8.43;5.95;;;4.10;99.90;;;;;;4938091;29;20221;-70
2021/05/08 04:10:15;;;;;;;6.88;5.90;;;4.10;99.90;;;;;;4938052;29;20222;-70
2021/05/08 04:12:41;;;;;;;8.48;6.63;;;4.10;99.90;;;;;;4937725;29;20577;-71
2021/05/08 04:15:08;;;;;;;10.88;6.00;;;4.10;99.90;;;;;;4938056;29;20218;-70
2021/05/08 04:17:35;;;;;;;6.97;6.10;;;4.20;99.90;;;;;;4937821;29;20296;-70
2021/05/08 04:20:01;;;;;;;6.47;5.88;;;4.20;99.90;;;;;;4937357;29;20210;-70
2021/05/08 04:22:27;;;;;;;8.15;5.93;;;4.20;99.90;;;;;;4937555;29;20608;-70
2021/05/08 04:24:53;;;;;;;9.43;6.32;;;4.30;99.90;;;;;;4937850;29;20515;-69
2021/05/08 04:27:20;;;;;;;7.43;6.32;;;4.30;99.90;;;;;;4938957;29;20265;-70
2021/05/08 04:29:46;;;;;;;7.80;5.63;;;4.30;99.90;;;;;;4939770;29;20237;-69
2021/05/08 04:32:12;;;;;;;11.90;6.40;;;4.40;99.90;;;;;;4937649;29;20249;-70
2021/05/08 04:34:39;;;;;;;9.38;6.35;;;4.90;99.90;;;;;;4938417;29;20218;-70
2021/05/08 04:37:05;;;;;;;7.63;5.03;;;5.70;99.90;;;;;;4937664;29;20209;-70
2021/05/08 04:39:32;;;;;;;5.00;3.78;;;6.40;99.90;;;;;;4937412;29;20585;-70
2021/05/08 04:41:58;;;;;;;5.20;4.25;;;7.10;99.90;;;;;;4937008;29;20257;-73
2021/05/08 04:44:25;;;;;;;4.53;4.22;;;7.70;99.90;;;;;;4937533;29;20580;-73
2021/05/08 04:46:51;;;;;;;5.50;3.70;;;8.20;99.90;;;;;;4936888;29;20213;-73
2021/05/08 04:49:19;;;;;;;3.60;3.42;;;8.80;99.90;;;;;;4936843;29;20214;-74
2021/05/08 04:51:46;;;;;;;3.80;3.50;;;9.30;99.90;;;;;;4937056;29;20226;-73
2021/05/08 04:54:12;;;;;;;4.13;3.80;;;9.60;99.90;;;;;;4936873;29;20745;-74
2021/05/08 04:56:38;;;;;;;5.20;3.93;;;9.80;99.90;;;;;;4937072;29;20214;-74
2021/05/08 04:59:04;;;;;;;4.23;3.87;;;10.10;99.90;;;;;;4937237;29;20472;-74
2021/05/08 05:01:31;;;;;;;5.47;4.03;;;10.20;99.90;;;;;;4936464;29;20526;-74
2021/05/08 05:03:57;;;;;;;3.93;3.57;;;10.50;99.90;;;;;;4938334;29;20469;-71
2021/05/08 05:06:23;;;;;;;4.30;4.10;;;10.80;99.90;;;;;;4940828;29;20517;-71
2021/05/08 05:08:50;;;;;;;4.17;3.97;;;11.00;99.90;;;;;;4937163;29;20462;-71
2021/05/08 05:11:17;;;;;;;4.63;4.33;;;11.40;99.90;;;;;;4936652;29;20497;-72
2021/05/08 05:13:44;;;;;;;3.90;3.60;;;11.60;99.90;;;;;;4936057;29;20458;-71
2021/05/08 05:16:11;;;;;;;5.03;4.73;;;11.60;99.90;;;;;;4936382;29;20509;-73
2021/05/08 05:18:37;;;;;;;4.63;4.23;;;11.30;99.90;;;;;;4936744;29;20650;-71
2021/05/08 05:21:04;;;;;;;7.10;5.03;;;10.80;99.90;;;;;;4936048;29;20986;-71
2021/05/08 05:23:30;;;;;;;5.63;4.60;;;10.20;99.90;;;;;;4936883;29;20469;-74
2021/05/08 05:25:57;;;;;;;4.80;4.40;;;9.80;99.90;;;;;;4936892;29;20473;-74
2021/05/08 05:28:24;;;;;;;5.05;4.40;;;9.50;99.90;;;;;;4936878;29;20473;-74
2021/05/08 05:30:51;;;;;;;5.72;4.38;;;9.30;99.90;;;;;;4936263;29;20238;-74
2021/05/08 05:33:17;;;;;;;5.05;4.65;;;9.00;99.90;;;;;;4935672;29;20245;-74
2021/05/08 05:35:44;;;;;;;6.88;5.38;;;9.00;99.90;;;;;;4935803;29;20297;-74
2021/05/08 05:38:10;;;;;;;5.15;4.68;;;8.80;99.90;;;;;;4936043;29;20213;-73
2021/05/08 05:40:36;;;;;;;5.80;4.93;;;8.70;99.90;;;;;;4936179;29;20230;-73
2021/05/08 05:43:03;;;;;;;4.80;4.50;;;8.70;99.90;;;;;;4936015;29;20297;-74
2021/05/08 05:45:30;;;;;;;6.90;5.93;;;9.00;99.90;;;;;;4936125;29;20219;-74
2021/05/08 05:47:56;;;;;;;5.15;4.72;;;9.00;99.90;;;;;;4935569;29;20209;-74
2021/05/08 05:50:24;;;;;;;5.00;4.60;;;8.90;99.90;;;;;;4935385;29;20666;-74
2021/05/08 05:52:52;;;;;;;5.68;5.18;;;8.90;99.90;;;;;;4935507;29;20217;-73
2021/05/08 05:55:19;;;;;;;5.57;4.68;;;9.10;99.90;;;;;;4936090;29;20309;-70
2021/05/08 05:57:45;;;;;;;10.15;6.20;;;9.20;99.90;;;;;;4935709;29;20722;-70
2021/05/08 06:00:14;;;;;;;5.10;4.60;;;9.60;99.90;;;;;;4935711;29;20224;-71
2021/05/08 06:02:40;;;;;;;4.78;4.20;;;10.20;99.90;;;;;;4935145;29;20218;-71
2021/05/08 06:05:07;;;;;;;5.47;4.23;;;11.00;99.90;;;;;;4935366;29;20317;-71
2021/05/08 06:07:33;;;;;;;5.60;4.17;;;11.70;99.90;;;;;;4935442;29;20486;-71
2021/05/08 06:09:59;;;;;;;3.67;3.47;;;12.30;99.90;;;;;;4935801;29;20496;-71
2021/05/08 06:12:25;;;;;;;4.10;3.80;;;12.90;99.90;;;;;;4935293;29;20537;-71
2021/05/08 06:14:52;;;;;;;5.10;3.63;;;13.40;99.90;;;;;;4935665;29;20492;-71
2021/05/08 06:17:19;;;;;;;4.57;3.73;;;14.00;99.90;;;;;;4935148;29;20466;-71
2021/05/08 06:19:45;;;;;;;3.80;3.50;;;14.20;99.90;;;;;;4935257;29;20533;-71
2021/05/08 06:22:11;;;;;;;4.20;3.90;;;14.40;99.90;;;;;;4934910;29;20492;-71
2021/05/08 06:24:37;;;;;;;3.77;3.47;;;14.80;99.90;;;;;;4935564;29;20476;-71
2021/05/08 06:27:04;;;;;;;4.17;3.87;;;15.20;99.90;;;;;;4934764;29;20465;-71
2021/05/08 06:29:30;;;;;;;4.20;3.63;;;15.60;99.90;;;;;;4935187;29;20481;-71
2021/05/08 06:31:56;;;;;;;4.77;3.10;;;15.80;99.90;;;;;;4935075;29;20498;-74
2021/05/08 06:34:23;;;;;;;4.77;4.10;;;16.10;99.90;;;;;;4934763;29;20486;-71
2021/05/08 06:36:49;;;;;;;3.80;3.40;;;16.30;99.90;;;;;;4935370;29;20466;-71
2021/05/08 06:39:15;;;;;;;3.03;2.93;;;16.30;99.90;;;;;;4935474;29;20472;-71
2021/05/08 06:41:42;;;;;;;3.90;3.60;;;16.60;99.90;;;;;;4935613;29;20486;-71
2021/05/08 06:44:08;;;;;;;3.80;3.57;;;16.80;99.90;;;;;;4935390;29;20473;-72
2021/05/08 06:46:34;;;;;;;4.00;3.70;;;16.90;99.90;;;;;;4934811;29;20774;-71
2021/05/08 06:49:00;;;;;;;3.27;3.07;;;17.00;99.90;;;;;;4934976;29;20473;-71
2021/05/08 06:51:28;;;;;;;2.60;2.50;;;17.20;99.90;;;;;;4935327;29;20501;-71
2021/05/08 06:53:54;;;;;;;2.87;2.67;;;17.30;99.90;;;;;;4935455;29;20783;-71
2021/05/08 06:56:20;;;;;;;3.20;3.00;;;17.20;99.90;;;;;;4935410;29;20473;-71
2021/05/08 06:58:46;;;;;;;3.50;3.20;;;17.00;99.90;;;;;;4935784;29;20469;-71
2021/05/08 07:01:13;;;;;;;3.90;3.30;;;17.10;99.90;;;;;;4934922;29;20989;-72
2021/05/08 07:03:39;;;;;;;3.00;2.60;;;17.10;99.90;;;;;;4934985;29;20969;-71
2021/05/08 07:06:05;;;;;;;2.70;2.50;;;17.40;99.90;;;;;;4935090;29;20892;-71
2021/05/08 07:08:32;;;;;;;3.17;2.87;;;17.80;99.10;;;;;;4935802;29;20883;-70
2021/05/08 07:10:58;;;;;;;2.97;2.77;;;17.70;98.10;;;;;;4935384;29;20553;-70
2021/05/08 07:13:24;;;;;;;5.93;2.93;;;17.70;98.60;;;;;;4934855;29;20473;-71
2021/05/08 07:15:50;;;;;;;2.60;2.33;;;17.90;97.90;;;;;;4935086;29;20836;-71
2021/05/08 07:18:17;;;;;;;2.73;2.53;;;18.10;96.20;;;;;;4934751;29;20516;-70
2021/05/08 07:20:43;;;;;;;2.93;2.73;;;17.20;97.00;;;;;;4934659;29;20488;-71
2021/05/08 07:23:09;;;;;;;4.03;2.50;;;17.20;97.70;;;;;;4934892;29;20462;-71
2021/05/08 07:25:37;;;;;;;2.80;2.60;;;17.50;97.20;;;;;;4935201;29;20923;-71
2021/05/08 07:28:13;;;;;;;4.33;2.90;;;18.10;96.90;;;;;;4934846;29;20481;-70
2021/05/08 07:30:41;;;;;;;2.70;2.60;;;17.70;95.50;;;;;;4934637;29;20579;-70
2021/05/08 07:33:07;;;;;;;26.47;24.17;;;17.80;95.80;;;;;;4934333;29;20473;-70
2021/05/08 07:35:34;;;;;;;4.87;4.30;;;17.90;96.00;;;;;;4934707;29;20520;-70
2021/05/08 07:38:00;;;;;;;3.10;2.90;;;17.40;96.30;;;;;;4936427;29;20471;-70
2021/05/08 07:40:26;;;;;;;9.67;8.67;;;16.60;96.70;;;;;;4938843;29;20544;-72
2021/05/08 07:42:53;;;;;;;3.30;3.03;;;15.90;96.50;;;;;;4938441;29;20473;-70
2021/05/08 07:45:20;;;;;;;3.80;2.80;;;15.00;97.40;;;;;;4938450;29;20469;-70
2021/05/08 07:47:46;;;;;;;2.90;2.63;;;14.20;99.40;;;;;;4938130;29;20473;-70
2021/05/08 07:50:12;;;;;;;2.90;2.70;;;13.70;99.90;;;;;;4937620;29;20981;-70
2021/05/08 07:52:38;;;;;;;3.00;2.87;;;13.30;99.90;;;;;;4938108;29;20469;-70
2021/05/08 07:55:06;;;;;;;3.43;3.17;;;13.00;99.90;;;;;;4938712;29;20781;-70
2021/05/08 07:57:32;;;;;;;2.87;2.50;;;12.70;99.90;;;;;;4938423;29;20492;-70
2021/05/08 07:59:59;;;;;;;2.93;2.70;;;12.80;99.90;;;;;;4938432;29;20466;-70
2021/05/08 08:02:26;;;;;;;4.73;2.90;;;12.80;99.90;;;;;;4939997;29;20497;-70
2021/05/08 08:04:52;;;;;;;2.50;2.30;;;12.80;99.90;;;;;;4940654;29;20461;-70
2021/05/08 08:07:18;;;;;;;3.40;3.10;;;12.50;99.90;;;;;;4940529;29;20210;-70
2021/05/08 08:09:44;;;;;;;3.80;2.50;;;12.40;99.90;;;;;;4939389;29;20214;-69
2021/05/08 08:12:11;;;;;;;3.63;2.70;;;12.40;99.90;;;;;;4937782;29;20578;-70
2021/05/08 08:14:38;;;;;;;3.25;2.80;;;12.60;99.90;;;;;;4937706;29;20206;-70
2021/05/08 08:17:05;;;;;;;2.97;2.78;;;12.60;99.90;;;;;;4937859;29;20214;-70
2021/05/08 08:19:31;;;;;;;12.70;2.55;;;12.50;99.90;;;;;;4937846;29;20253;-70
2021/05/08 08:21:58;;;;;;;2.40;2.30;;;12.50;99.90;;;;;;4937989;29;20237;-71
2021/05/08 08:24:24;;;;;;;6.60;5.95;;;12.50;99.90;;;;;;4937838;29;20232;-70
2021/05/08 08:26:50;;;;;;;4.53;4.13;;;12.50;99.90;;;;;;4937979;29;20319;-70
2021/05/08 08:29:16;;;;;;;5.22;3.60;;;12.40;99.90;;;;;;4938364;29;20214;-70
2021/05/08 08:31:43;;;;;;;4.90;2.50;;;12.30;99.90;;;;;;4938861;29;20277;-70
2021/05/08 08:34:10;;;;;;;2.42;2.40;;;12.30;99.90;;;;;;4942902;29;20217;-75
2021/05/08 08:36:36;;;;;;;3.05;2.80;;;12.40;99.90;;;;;;4939892;29;20218;-74
2021/05/08 08:39:03;;;;;;;2.78;2.35;;;12.50;99.90;;;;;;4940531;29;20210;-74
2021/05/08 08:41:30;;;;;;;3.15;2.42;;;12.40;99.90;;;;;;4939539;29;20829;-74
2021/05/08 08:43:56;;;;;;;3.60;3.30;;;12.40;99.90;;;;;;4938442;29;20206;-74
2021/05/08 08:46:22;;;;;;;4.32;2.28;;;12.50;99.90;;;;;;4938222;29;20216;-75
2021/05/08 08:48:50;;;;;;;2.70;2.60;;;12.50;99.90;;;;;;4938118;29;20206;-74
2021/05/08 08:51:17;;;;;;;5.40;4.90;;;12.70;99.90;;;;;;4937159;29;20237;-74
2021/05/08 08:53:44;;;;;;;5.05;4.07;;;12.70;99.90;;;;;;4937131;29;20626;-75
2021/05/08 08:56:11;;;;;;;4.97;3.50;;;12.80;99.90;;;;;;4937132;29;20273;-74
2021/05/08 08:58:42;;;;;;;5.60;5.18;;;12.80;99.90;;;;;;4937333;29;20222;-75
2021/05/08 09:01:08;;;;;;;2.33;2.13;;;12.80;99.90;;;;;;4937373;29;20238;-74
2021/05/08 09:03:35;;;;;;;4.82;4.53;;;12.60;99.90;;;;;;4936703;29;20651;-75
2021/05/08 09:06:01;;;;;;;2.58;2.38;;;12.80;99.90;;;;;;4936513;29;20225;-70
2021/05/08 09:08:29;;;;;;;3.10;2.47;;;12.90;99.90;;;;;;4937347;29;20214;-70
2021/05/08 09:11:16;;;;;;;1.98;1.75;;;13.00;99.90;;;;;;4937034;29;20681;-70
2021/05/08 09:13:43;;;;;;;4.57;3.45;;;13.20;99.90;;;;;;4937112;29;20214;-71
2021/05/08 09:16:09;;;;;;;5.90;4.30;;;13.30;99.90;;;;;;4937087;29;20210;-70
2021/05/08 09:18:37;;;;;;;2.40;2.00;;;13.30;99.90;;;;;;4936568;29;20964;-70
2021/05/08 09:21:04;;;;;;;2.73;2.10;;;13.30;99.90;;;;;;4936434;29;20532;-71
2021/05/08 09:23:34;;;;;;;5.20;2.00;;;13.50;99.90;;;;;;4936684;29;20473;-71
2021/05/08 09:26:05;;;;;;;4.23;2.33;;;13.60;99.90;;;;;;4938155;29;20479;-70
2021/05/08 09:28:33;;;;;;;2.10;1.87;;;13.80;99.90;;;;;;4940424;29;20969;-70
2021/05/08 09:30:59;;;;;;;1.90;1.90;;;14.00;99.60;;;;;;4942129;29;20500;-69
2021/05/08 09:33:27;;;;;;;2.00;1.90;;;14.00;99.60;;;;;;4942050;29;20516;-69
2021/05/08 09:36:05;;;;;;;2.17;2.07;;;14.10;99.20;;;;;;4940224;29;20496;-68
2021/05/08 09:38:34;;;;;;;2.50;2.40;;;14.10;98.30;;;;;;4940527;29;20483;-73
2021/05/08 09:41:01;;;;;;;1.60;1.60;;;14.10;97.40;;;;;;4938346;29;20481;-72
2021/05/08 09:43:27;;;;;;;1.90;1.63;;;14.10;97.70;;;;;;4936985;29;20469;-72
2021/05/08 09:45:54;;;;;;;3.07;2.63;;;14.10;98.40;;;;;;4937550;29;20473;-72
2021/05/08 09:48:23;;;;;;;3.33;2.60;;;14.00;97.50;;;;;;4937036;29;20466;-72
2021/05/08 09:50:50;;;;;;;1.70;1.60;;;14.10;98.30;;;;;;4937571;29;20525;-72
2021/05/08 09:53:26;;;;;;;2.00;1.80;;;14.30;97.20;;;;;;4936312;29;20476;-72
2021/05/08 09:55:53;;;;;;;2.00;2.00;;;14.40;97.20;;;;;;4936318;29;20576;-71
2021/05/08 09:58:22;;;;;;;1.97;1.87;;;14.30;95.70;;;;;;4935934;29;20469;-71
2021/05/08 10:00:48;;;;;;;1.93;1.73;;;14.30;95.80;;;;;;4936911;29;20894;-71
2021/05/08 10:03:15;;;;;;;2.43;2.33;;;14.20;95.50;;;;;;4935824;29;20462;-68
2021/05/08 10:05:43;;;;;;;1.83;1.80;;;14.20;95.00;;;;;;4935466;29;20474;-68
2021/05/08 10:08:10;;;;;;;1.97;1.97;;;14.20;96.10;;;;;;4935952;29;20461;-67
2021/05/08 10:10:37;;;;;;;1.90;1.80;;;14.30;96.30;;;;;;4935581;29;20567;-69
2021/05/08 10:13:09;;;;;;;2.53;2.50;;;14.40;95.20;;;;;;4935638;29;20564;-68
2021/05/08 10:15:36;;;;;;;2.40;2.27;;;14.40;93.90;;;;;;4935370;29;20477;-68
2021/05/08 10:18:05;;;;;;;2.57;2.33;;;14.50;94.70;;;;;;4935386;29;20481;-68
2021/05/08 10:20:33;;;;;;;2.50;2.40;;;14.50;93.70;;;;;;4935256;29;20585;-68
2021/05/08 10:23:00;;;;;;;2.60;2.40;;;14.60;91.90;;;;;;4935341;29;20512;-71
2021/05/08 10:25:27;;;;;;;2.03;2.03;;;14.70;92.10;;;;;;4935514;29;20764;-69
2021/05/08 10:27:53;;;;;;;2.57;2.33;;;14.90;92.10;;;;;;4935584;29;20881;-71
2021/05/08 10:30:24;;;;;;;2.57;2.40;;;14.90;91.60;;;;;;4935694;29;20489;-71
2021/05/08 10:32:51;;;;;;;2.63;2.43;;;14.80;92.30;;;;;;4935201;29;20466;-68
2021/05/08 10:35:23;;;;;;;3.23;2.53;;;15.00;92.40;;;;;;4936053;29;20462;-68
2021/05/08 10:38:22;;;;;;;2.00;1.90;;;15.10;91.50;;;;;;4935804;29;20525;-70
2021/05/08 10:40:50;;;;;;;2.73;2.50;;;15.10;91.20;;;;;;4936117;29;20489;-70
2021/05/08 10:43:36;;;;;;;2.27;2.17;;;15.10;90.40;;;;;;4936715;29;20484;-70
2021/05/08 10:46:03;;;;;;;2.73;2.33;;;15.00;90.40;;;;;;4936686;29;20470;-70
2021/05/08 10:48:29;;;;;;;2.60;2.17;;;15.10;90.80;;;;;;4935679;29;20492;-71
2021/05/08 10:50:58;;;;;;;2.27;2.17;;;15.10;91.10;;;;;;4936031;29;20497;-71
2021/05/08 10:53:37;;;;;;;2.40;2.20;;;15.30;90.70;;;;;;4935904;29;20541;-71
2021/05/08 10:56:03;;;;;;;4.30;2.90;;;15.40;90.10;;;;;;4936033;29;20465;-71
2021/05/08 10:58:38;;;;;;;2.70;1.90;;;15.50;87.30;;;;;;4935660;29;20472;-71
2021/05/08 11:01:10;;;;;;;1.87;1.87;;;15.30;87.00;;;;;;4936084;29;20489;-71
2021/05/08 11:04:01;;;;;;;2.43;2.23;;;15.20;84.50;;;;;;4935869;29;20914;-71
2021/05/08 11:06:28;;;;;;;2.47;2.47;;;15.40;85.40;;;;;;4936275;29;20482;-71
2021/05/08 11:08:54;;;;;;;2.23;2.13;;;15.60;82.30;;;;;;4937312;29;20473;-72
2021/05/08 11:11:22;;;;;;;5.07;2.50;;;15.70;81.10;;;;;;4942813;29;20493;-72
2021/05/08 11:14:02;;;;;;;2.37;2.27;;;15.60;77.90;;;;;;4944592;29;20493;-72
2021/05/08 11:16:30;;;;;;;2.07;1.90;;;15.70;80.60;;;;;;4940526;29;20970;-73
2021/05/08 11:18:57;;;;;;;2.20;2.10;;;15.80;82.00;;;;;;4939689;29;20495;-72
2021/05/08 11:22:04;;;;;;;2.13;2.03;;;15.80;81.70;;;;;;4939228;29;20482;-73
2021/05/08 11:24:39;;;;;;;2.13;2.03;;;15.90;79.90;;;;;;4939839;29;20468;-73
2021/05/08 11:27:20;;;;;;;2.20;2.20;;;15.80;77.20;;;;;;4939521;29;20467;-73
2021/05/08 11:29:46;;;;;;;3.20;2.27;;;15.80;77.50;;;;;;4939564;29;20461;-73
2021/05/08 11:32:13;;;;;;;1.80;1.80;;;15.80;78.30;;;;;;4938036;29;20605;-71
2021/05/08 11:34:43;;;;;;;3.57;2.40;;;15.90;77.80;;;;;;4938460;29;20468;-73
2021/05/08 11:37:12;;;;;;;2.10;2.10;;;16.00;74.80;;;;;;4938768;29;20469;-73
2021/05/08 11:39:40;;;;;;;2.30;2.20;;;16.00;72.20;;;;;;4938856;29;20469;-73
2021/05/08 11:42:12;;;;;;;2.40;2.30;;;15.70;69.30;;;;;;4938407;29;20497;-73
2021/05/08 11:44:40;;;;;;;3.07;2.87;;;15.70;71.50;;;;;;4938656;29;20469;-73
2021/05/08 11:49:55;;;;;;;2.40;2.20;;;16.00;73.10;;;;;;4937948;29;20536;-73
2021/05/08 11:52:35;;;;;;;2.80;2.60;;;16.10;72.20;;;;;;4938523;29;20501;-73
2021/05/08 11:55:03;;;;;;;2.33;2.23;;;16.30;70.50;;;;;;4938509;29;20945;-73
2021/05/08 11:57:30;;;;;;;2.33;2.23;;;16.30;68.40;;;;;;4937904;29;20517;-73
2021/05/08 11:59:56;;;;;;;2.33;2.23;;;16.40;68.00;;;;;;4938610;29;20573;-73
2021/05/08 12:02:24;;;;;;;2.50;2.40;;;16.30;66.60;;;;;;4938302;29;20497;-73
2021/05/08 12:04:53;;;;;;;2.50;2.37;;;16.30;66.00;;;;;;4938400;29;20465;-70
2021/05/08 12:07:20;;;;;;;2.20;2.10;;;16.30;66.30;;;;;;4938947;29;20481;-73
2021/05/08 12:09:47;;;;;;;2.20;2.20;;;16.30;67.10;;;;;;4939842;29;20859;-71
2021/05/08 12:12:13;;;;;;;2.17;2.07;;;16.40;66.70;;;;;;4940462;29;20497;-71
2021/05/08 12:14:41;;;;;;;2.33;2.10;;;16.40;64.60;;;;;;4939557;29;20501;-70
2021/05/08 12:17:08;;;;;;;2.27;2.17;;;16.50;65.70;;;;;;4937863;29;20466;-70
2021/05/08 12:19:36;;;;;;;4.70;2.33;;;16.40;62.80;;;;;;4937781;29;20981;-70
2021/05/08 12:22:04;;;;;;;2.20;1.90;;;16.50;64.00;;;;;;4937183;29;21012;-72
2021/05/08 12:24:30;;;;;;;5.83;2.07;;;16.60;65.20;;;;;;4936923;29;20476;-71
2021/05/08 12:26:56;;;;;;;2.33;2.13;;;16.70;63.70;;;;;;4937747;29;20829;-71
2021/05/08 12:29:23;;;;;;;2.13;2.00;;;16.70;62.40;;;;;;4937611;29;20469;-70
2021/05/08 12:31:49;;;;;;;3.87;3.57;;;16.70;64.10;;;;;;4937227;29;20784;-70
2021/05/08 12:34:19;;;;;;;2.30;2.30;;;16.60;62.60;;;;;;4936878;29;20465;-70
2021/05/08 12:36:59;;;;;;;2.17;2.00;;;16.70;64.20;;;;;;4937977;29;20466;-73
2021/05/08 12:39:26;;;;;;;2.23;2.13;;;16.80;63.00;;;;;;4937746;29;20469;-73
2021/05/08 12:41:54;;;;;;;2.00;1.90;;;16.90;63.40;;;;;;4937464;29;20910;-73
2021/05/08 12:44:30;;;;;;;2.07;1.97;;;17.00;63.70;;;;;;4937428;29;20568;-73
2021/05/08 12:46:59;;;;;;;2.03;1.93;;;17.00;63.50;;;;;;4937113;29;20476;-73
2021/05/08 12:49:27;;;;;;;2.23;2.13;;;17.00;63.10;;;;;;4937012;29;20578;-73
2021/05/08 12:51:53;;;;;;;2.53;2.10;;;17.00;61.70;;;;;;4937066;29;20497;-73
2021/05/08 12:54:25;;;;;;;2.23;2.20;;;16.90;61.40;;;;;;4937286;29;20465;-73
2021/05/08 12:56:53;;;;;;;2.20;2.10;;;16.80;61.30;;;;;;4937453;29;20916;-73
2021/05/08 12:59:27;;;;;;;2.80;2.70;;;16.60;60.70;;;;;;4937292;29;20461;-73
2021/05/08 13:02:09;;;;;;;2.10;2.10;;;16.60;60.30;;;;;;4936064;29;20490;-73
2021/05/08 13:04:39;;;;;;;2.30;2.13;;;16.60;61.40;;;;;;4937151;29;20450;-73
2021/05/08 13:07:26;;;;;;;2.50;2.30;;;16.70;62.00;;;;;;4936660;29;20481;-73
2021/05/08 13:09:53;;;;;;;2.53;2.43;;;16.50;59.90;;;;;;4936815;29;20836;-69
2021/05/08 13:12:22;;;;;;;2.93;2.83;;;16.50;61.00;;;;;;4936048;29;20970;-70
2021/05/08 13:14:48;;;;;;;3.53;2.40;;;16.40;60.60;;;;;;4936941;29;20525;-73
2021/05/08 13:17:16;;;;;;;2.53;2.43;;;16.30;60.40;;;;;;4936037;29;20810;-73
2021/05/08 13:19:43;;;;;;;2.43;2.33;;;16.20;61.70;;;;;;4936724;29;20466;-73
2021/05/08 13:22:09;;;;;;;3.27;3.17;;;16.10;61.50;;;;;;4936477;29;20844;-72
2021/05/08 13:24:36;;;;;;;2.27;2.27;;;16.10;63.10;;;;;;4936780;29;20466;-73
2021/05/08 13:27:04;;;;;;;2.00;1.90;;;16.20;62.70;;;;;;4936499;29;20525;-72
2021/05/08 13:29:31;;;;;;;2.00;2.00;;;16.20;60.60;;;;;;4936355;29;20491;-73
2021/05/08 13:31:57;;;;;;;2.70;2.57;;;16.30;62.70;;;;;;4935888;29;20520;-72
2021/05/08 13:34:23;;;;;;;2.20;2.20;;;16.40;62.20;;;;;;4935919;29;20477;-73
2021/05/08 13:36:49;;;;;;;2.30;2.30;;;16.50;61.60;;;;;;4935640;29;20466;-73
2021/05/08 13:39:16;;;;;;;2.03;2.03;;;16.50;61.10;;;;;;4936390;29;20465;-73
2021/05/08 13:41:42;;;;;;;2.53;2.53;;;16.50;61.20;;;;;;4935977;29;20540;-73
2021/05/08 13:44:08;;;;;;;2.27;2.27;;;16.50;62.20;;;;;;4935985;29;20984;-73
2021/05/08 13:46:37;;;;;;;2.20;2.20;;;16.60;60.90;;;;;;4936012;29;20473;-73
2021/05/08 13:49:03;;;;;;;2.70;2.50;;;16.60;61.10;;;;;;4936273;29;20477;-73
2021/05/08 13:51:29;;;;;;;3.00;2.70;;;16.70;62.20;;;;;;4935724;29;20828;-73
2021/05/08 13:53:56;;;;;;;2.93;2.60;;;16.80;61.10;;;;;;4935761;29;20466;-72
2021/05/08 13:56:22;;;;;;;3.00;2.80;;;16.90;61.70;;;;;;4936118;29;20466;-72
2021/05/08 13:58:48;;;;;;;4.00;2.80;;;16.80;60.70;;;;;;4936228;29;20472;-72
2021/05/08 14:01:14;;;;;;;3.40;3.20;;;16.80;60.50;;;;;;4935899;29;20521;-70
2021/05/08 14:03:41;;;;;;;2.20;2.10;;;16.80;60.40;;;;;;4935950;29;20466;-69
2021/05/08 14:06:07;;;;;;;2.70;2.60;;;16.80;62.40;;;;;;4935899;29;20552;-72
2021/05/08 14:08:34;;;;;;;3.00;2.80;;;16.90;60.70;;;;;;4935980;29;20492;-71
2021/05/08 14:11:01;;;;;;;2.93;2.77;;;16.90;62.90;;;;;;4935933;29;20998;-71
2021/05/08 14:13:28;;;;;;;3.33;3.23;;;16.90;64.30;;;;;;4935956;29;20473;-72
2021/05/08 14:15:54;;;;;;;3.37;3.17;;;16.90;63.60;;;;;;4935920;29;20470;-71
2021/05/08 14:18:20;;;;;;;3.27;3.00;;;16.80;63.80;;;;;;4935677;29;20469;-72
2021/05/08 14:20:47;;;;;;;3.40;3.20;;;16.70;63.10;;;;;;4935466;29;20486;-72
2021/05/08 14:23:14;;;;;;;2.77;2.57;;;16.50;63.00;;;;;;4935664;29;20469;-71
2021/05/08 14:25:40;;;;;;;3.10;3.00;;;16.30;64.20;;;;;;4936312;29;20469;-71
2021/05/08 14:28:06;;;;;;;3.37;3.20;;;16.30;64.60;;;;;;4935895;29;20886;-72
2021/05/08 14:30:32;;;;;;;3.40;3.20;;;16.30;64.40;;;;;;4935456;29;20525;-71
2021/05/08 14:32:58;;;;;;;2.77;2.57;;;16.30;64.40;;;;;;4935573;29;20473;-72
2021/05/08 14:35:25;;;;;;;2.60;2.60;;;16.30;64.10;;;;;;4936305;29;20465;-72
2021/05/08 14:37:52;;;;;;;3.67;3.57;;;16.40;65.00;;;;;;4936047;29;20473;-72
2021/05/08 14:40:18;;;;;;;3.10;2.90;;;16.50;65.10;;;;;;4936051;29;20476;-72
2021/05/08 14:42:44;;;;;;;2.67;2.47;;;16.50;64.70;;;;;;4935023;29;20470;-73
2021/05/08 14:45:13;;;;;;;3.10;3.10;;;16.50;64.40;;;;;;4935841;29;20485;-72
2021/05/08 14:47:39;;;;;;;4.27;3.97;;;16.50;64.20;;;;;;4936239;29;20577;-72
2021/05/08 14:50:08;;;;;;;3.37;3.07;;;16.50;63.50;;;;;;4935469;29;20466;-73
2021/05/08 14:52:34;;;;;;;2.90;2.80;;;16.40;64.70;;;;;;4935272;29;20489;-71
2021/05/08 14:55:01;;;;;;;3.67;3.43;;;16.40;64.20;;;;;;4935632;29;20472;-72
2021/05/08 14:57:28;;;;;;;3.00;3.00;;;16.30;63.90;;;;;;4935595;29;20469;-72
2021/05/08 14:59:54;;;;;;;3.20;2.90;;;16.30;65.10;;;;;;4935525;29;20565;-73
2021/05/08 15:02:20;;;;;;;3.47;3.27;;;16.40;66.70;;;;;;4934552;29;20871;-73
2021/05/08 15:04:46;;;;;;;3.00;2.90;;;16.50;67.10;;;;;;4935048;29;20473;-71
2021/05/08 15:07:12;;;;;;;4.07;2.80;;;16.40;67.10;;;;;;4935101;29;20486;-72
2021/05/08 15:09:38;;;;;;;3.40;3.20;;;16.30;66.30;;;;;;4935486;29;20473;-73
2021/05/08 15:12:06;;;;;;;4.03;3.63;;;16.20;66.10;;;;;;4935000;29;20521;-72
2021/05/08 15:14:33;;;;;;;3.80;3.70;;;16.20;66.60;;;;;;4935210;29;20976;-73
2021/05/08 15:16:59;;;;;;;3.40;3.30;;;16.20;67.10;;;;;;4934827;29;20529;-72
2021/05/08 15:19:25;;;;;;;3.70;3.50;;;16.20;67.00;;;;;;4935133;29;20953;-72
2021/05/08 15:21:51;;;;;;;3.80;3.60;;;16.10;65.40;;;;;;4937099;29;20482;-72
2021/05/08 15:24:17;;;;;;;3.70;3.60;;;16.10;66.20;;;;;;4937624;29;20787;-74
2021/05/08 15:26:43;;;;;;;3.60;3.40;;;16.00;67.00;;;;;;4935661;29;20462;-71
2021/05/08 15:29:10;;;;;;;4.07;3.80;;;16.00;67.40;;;;;;4935079;29;20472;-72
2021/05/08 15:31:36;;;;;;;3.80;3.53;;;16.00;68.10;;;;;;4934476;29;20721;-72
2021/05/08 15:34:03;;;;;;;4.23;4.03;;;15.90;68.00;;;;;;4934605;29;20945;-71
2021/05/08 15:36:32;;;;;;;4.03;3.93;;;15.90;67.60;;;;;;4935262;29;20478;-71
2021/05/08 15:38:59;;;;;;;3.83;3.70;;;15.80;68.80;;;;;;4935334;29;20470;-72
2021/05/08 15:41:25;;;;;;;4.40;4.20;;;15.70;69.20;;;;;;4935330;29;20520;-72
2021/05/08 15:43:51;;;;;;;4.10;4.00;;;15.60;68.60;;;;;;4934968;29;20473;-72
2021/05/08 15:46:18;;;;;;;3.70;3.50;;;15.50;68.70;;;;;;4934514;29;20949;-72
2021/05/08 15:48:44;;;;;;;3.87;3.70;;;15.50;69.40;;;;;;4934280;29;20474;-70
2021/05/08 15:51:12;;;;;;;3.57;3.47;;;15.50;70.00;;;;;;4934941;29;20494;-69
2021/05/08 15:53:38;;;;;;;4.60;4.40;;;15.50;69.40;;;;;;4934875;29;20505;-73
2021/05/08 15:56:06;;;;;;;3.90;3.70;;;15.40;68.80;;;;;;4935207;29;20469;-73
2021/05/08 15:58:32;;;;;;;4.57;4.20;;;15.50;69.50;;;;;;4936078;29;20471;-73
2021/05/08 16:00:58;;;;;;;3.80;3.50;;;15.40;68.60;;;;;;4940465;29;20502;-72
2021/05/08 16:03:25;;;;;;;4.70;4.40;;;15.40;69.60;;;;;;4944774;29;20484;-73
2021/05/08 16:05:53;;;;;;;4.10;4.00;;;15.40;69.70;;;;;;4943597;29;20480;-72
2021/05/08 16:08:20;;;;;;;3.80;3.70;;;15.50;68.50;;;;;;4945581;29;20946;-73
2021/05/08 16:10:46;;;;;;;3.50;3.30;;;15.50;68.80;;;;;;4944700;29;20536;-71
2021/05/08 16:13:12;;;;;;;4.13;3.83;;;15.50;69.60;;;;;;4938497;29;20492;-72
2021/05/08 16:15:38;;;;;;;4.50;3.70;;;15.50;69.60;;;;;;4938654;29;20532;-72
2021/05/08 16:18:04;;;;;;;3.50;3.40;;;15.50;69.80;;;;;;4938202;29;20588;-73
2021/05/08 16:20:31;;;;;;;4.10;4.00;;;15.50;69.40;;;;;;4937984;29;20485;-72
2021/05/08 16:22:58;;;;;;;3.87;3.77;;;15.40;70.30;;;;;;4938165;29;20466;-73
2021/05/08 16:25:24;;;;;;;4.10;4.00;;;15.40;69.90;;;;;;4938185;29;20473;-70
2021/05/08 16:27:50;;;;;;;4.57;4.37;;;15.30;70.00;;;;;;4938150;29;20476;-69
2021/05/08 16:30:17;;;;;;;4.30;4.10;;;15.20;69.00;;;;;;4937920;29;20472;-72
2021/05/08 16:32:43;;;;;;;4.20;4.00;;;15.10;70.40;;;;;;4937094;29;20576;-72
2021/05/08 16:35:10;;;;;;;3.80;3.67;;;15.10;71.40;;;;;;4937744;29;20521;-73
2021/05/08 16:37:37;;;;;;;4.10;4.00;;;15.10;71.60;;;;;;4940743;29;20473;-73
2021/05/08 16:40:05;;;;;;;4.50;4.20;;;15.10;72.40;;;;;;4940547;29;20465;-72
2021/05/08 16:42:31;;;;;;;4.00;3.63;;;15.10;71.50;;;;;;4937728;29;20485;-73
2021/05/08 16:44:57;;;;;;;3.97;3.77;;;15.00;71.60;;;;;;4938125;29;20816;-71
2021/05/08 16:47:33;;;;;;;4.00;3.83;;;15.00;70.90;;;;;;4937541;29;20545;-70
2021/05/08 16:50:00;;;;;;;4.63;4.30;;;15.00;71.20;;;;;;4937373;29;20473;-69
2021/05/08 16:52:28;;;;;;;4.03;3.80;;;15.00;71.00;;;;;;4937204;29;21029;-70